EDT,Max TemperatureF,Mean TemperatureF,Min TemperatureF,Max Dew PointF,MeanDew PointF,Min DewpointF,Max Humidity, Mean Humidity, Min Humidity, Max Sea Level PressureIn, Mean Sea Level PressureIn, Min Sea Level PressureIn, Max VisibilityMiles, Mean VisibilityMiles, Min VisibilityMiles, Max Wind SpeedMPH, Mean Wind SpeedMPH, Max Gust SpeedMPH,PrecipitationIn, CloudCover, Events, WindDirDegrees
2012-9-1,91,81,71,79,76,72,100,85,59,30.21,30.14,30.06,10,7,0,5,1,,0.00,4,Fog,185
2012-9-2,91,81,71,79,75,72,100,85,59,30.09,30.04,29.97,10,9,2,10,1,16,0.00,2,Thunderstorm,272
2012-9-3,86,78,71,81,75,72,100,94,74,30.06,30.01,29.98,10,9,3,7,2,,0.00,3,Rain-Thunderstorm,206
2012-9-4,89,80,71,79,74,72,100,89,62,30.02,29.98,29.93,10,10,5,10,2,18,0.00,3,Rain,232
2012-9-5,91,80,68,75,72,68,100,82,52,29.99,29.95,29.90,10,9,2,13,1,17,0.00,1,,230
2012-9-6,91,80,69,77,73,70,100,83,52,30.01,29.97,29.91,10,9,4,10,2,,0.00,2,,269
2012-9-7,91,80,69,79,74,70,100,85,55,29.98,29.93,29.86,10,8,0,13,2,23,0.00,2,Fog-Thunderstorm,255
2012-9-8,87,79,71,81,75,72,100,94,70,29.92,29.87,29.79,10,8,1,9,3,31,0.00,5,Rain-Thunderstorm,235
2012-9-9,86,80,71,75,73,68,100,86,58,29.98,29.87,29.80,10,10,7,9,4,12,0.00,4,,329
2012-9-10,84,74,64,70,64,59,100,77,45,30.12,30.05,29.98,10,10,10,14,3,21,0.00,1,,74
2012-9-11,84,72,60,68,64,61,100,80,54,30.24,30.18,30.11,10,10,7,16,4,22,0.00,1,,74
2012-9-12,84,74,64,70,66,63,94,79,54,30.27,30.22,30.19,10,10,10,15,6,20,0.00,3,,73
2012-9-13,78,71,64,72,69,64,100,94,74,30.24,30.20,30.17,10,9,3,13,5,18,0.00,5,Rain,48
2012-9-14,86,77,68,73,71,68,100,89,62,30.18,30.14,30.10,10,10,7,15,6,18,0.00,2,,71
2012-9-15,87,78,68,73,70,68,100,83,52,30.16,30.12,30.07,10,9,2,9,2,,0.00,1,,78
2012-9-16,87,74,62,73,70,63,100,87,55,30.12,30.07,30.02,10,10,4,9,1,,0.00,2,,138
2012-9-17,87,76,66,77,72,66,100,86,58,30.06,29.99,29.91,10,9,0,10,2,17,0.00,3,Fog-Rain,166
2012-9-18,78,74,71,75,73,72,100,96,83,29.93,29.85,29.80,10,10,7,12,5,17,0.00,4,Rain,216
2012-9-19,84,75,66,72,70,66,100,87,62,30.07,29.97,29.88,10,10,5,8,2,,0.00,2,,331
2012-9-20,82,75,68,72,70,68,100,92,70,30.11,30.06,30.03,10,9,5,7,3,,0.00,2,Rain,66
2012-9-21,87,78,68,72,70,68,100,87,55,30.08,30.04,30.00,10,8,2,10,2,,0.00,1,,91
2012-9-22,89,76,62,73,69,63,100,83,49,30.07,30.02,29.97,10,9,0,8,1,,0.00,1,Fog,308
2012-9-23,86,72,57,70,63,54,100,77,37,30.11,30.06,30.01,10,8,2,16,3,21,0.00,0,,343
2012-9-24,86,68,50,64,57,50,100,75,33,30.15,30.11,30.08,10,9,5,10,2,,0.00,0,,92
2012-9-25,84,72,59,64,63,59,100,81,48,30.20,30.16,30.12,10,10,10,14,4,24,0.00,0,,81
2012-9-26,86,74,62,73,69,63,100,88,62,30.20,30.16,30.11,10,10,5,14,3,20,0.00,3,,71
2012-9-27,86,77,68,77,72,68,100,92,62,30.19,30.14,30.09,10,6,0,10,1,,0.00,3,Fog-Rain-Thunderstorm,118
2012-9-28,87,74,62,72,68,63,100,80,46,30.13,30.07,30.00,10,9,5,8,2,,0.00,0,,88
2012-9-29,87,74,62,73,70,63,100,83,55,30.04,29.95,29.87,10,8,4,17,1,22,0.00,3,Rain,235
2012-9-30,82,76,69,75,72,70,100,95,74,29.90,29.86,29.81,10,7,0,13,1,20,0.00,4,Rain-Thunderstorm,110